sensor_id;sensor_type;location;lat;lon;timestamp;P1;durP1;ratioP1;P2;durP2;ratioP2
22916;SDS011;11624;53.250;7.456;2022-09-21T00:01:36;15.60;;;3.65;;
22916;SDS011;11624;53.250;7.456;2022-09-21T00:04:05;13.48;;;3.45;;
22916;SDS011;11624;53.250;7.456;2022-09-21T00:06:35;9.77;;;3.33;;
22916;SDS011;11624;53.250;7.456;2022-09-21T00:09:04;12.82;;;3.17;;
22916;SDS011;11624;53.250;7.456;2022-09-21T00:11:34;10.13;;;3.58;;
22916;SDS011;11624;53.250;7.456;2022-09-21T00:14:04;13.90;;;3.97;;
22916;SDS011;11624;53.250;7.456;2022-09-21T00:16:36;16.02;;;3.40;;
22916;SDS011;11624;53.250;7.456;2022-09-21T00:19:05;13.23;;;3.33;;
22916;SDS011;11624;53.250;7.456;2022-09-21T00:21:35;12.75;;;3.40;;
22916;SDS011;11624;53.250;7.456;2022-09-21T00:24:05;10.07;;;3.35;;
22916;SDS011;11624;53.250;7.456;2022-09-21T00:26:33;13.15;;;3.75;;
22916;SDS011;11624;53.250;7.456;2022-09-21T00:29:02;12.23;;;3.17;;
22916;SDS011;11624;53.250;7.456;2022-09-21T00:31:31;12.13;;;3.75;;
22916;SDS011;11624;53.250;7.456;2022-09-21T00:33:59;11.43;;;3.80;;
22916;SDS011;11624;53.250;7.456;2022-09-21T00:36:29;12.60;;;3.60;;
22916;SDS011;11624;53.250;7.456;2022-09-21T00:38:59;9.38;;;3.15;;
22916;SDS011;11624;53.250;7.456;2022-09-21T00:41:29;10.80;;;2.95;;
22916;SDS011;11624;53.250;7.456;2022-09-21T00:46:57;12.35;;;3.67;;
22916;SDS011;11624;53.250;7.456;2022-09-21T00:49:29;11.07;;;3.25;;
22916;SDS011;11624;53.250;7.456;2022-09-21T00:52:00;12.20;;;3.30;;
22916;SDS011;11624;53.250;7.456;2022-09-21T00:54:33;11.60;;;3.42;;
22916;SDS011;11624;53.250;7.456;2022-09-21T00:57:07;12.55;;;3.20;;
22916;SDS011;11624;53.250;7.456;2022-09-21T00:59:36;9.10;;;3.28;;
22916;SDS011;11624;53.250;7.456;2022-09-21T01:02:06;11.82;;;3.75;;
22916;SDS011;11624;53.250;7.456;2022-09-21T01:04:34;10.95;;;2.80;;
22916;SDS011;11624;53.250;7.456;2022-09-21T01:07:05;10.57;;;2.97;;
22916;SDS011;11624;53.250;7.456;2022-09-21T01:09:39;8.90;;;3.25;;
22916;SDS011;11624;53.250;7.456;2022-09-21T01:12:13;10.43;;;3.40;;
22916;SDS011;11624;53.250;7.456;2022-09-21T01:17:49;12.55;;;3.25;;
22916;SDS011;11624;53.250;7.456;2022-09-21T01:20:34;11.52;;;3.20;;
22916;SDS011;11624;53.250;7.456;2022-09-21T01:23:32;9.30;;;3.00;;
22916;SDS011;11624;53.250;7.456;2022-09-21T01:26:13;12.63;;;2.85;;
22916;SDS011;11624;53.250;7.456;2022-09-21T01:28:58;9.15;;;3.00;;
22916;SDS011;11624;53.250;7.456;2022-09-21T01:31:37;10.70;;;2.88;;
22916;SDS011;11624;53.250;7.456;2022-09-21T01:34:13;9.95;;;2.95;;
22916;SDS011;11624;53.250;7.456;2022-09-21T01:36:47;7.97;;;2.88;;
22916;SDS011;11624;53.250;7.456;2022-09-21T01:39:19;9.75;;;3.22;;
22916;SDS011;11624;53.250;7.456;2022-09-21T01:41:49;7.25;;;2.75;;
22916;SDS011;11624;53.250;7.456;2022-09-21T01:44:22;8.23;;;3.00;;
22916;SDS011;11624;53.250;7.456;2022-09-21T01:46:54;11.57;;;3.30;;
22916;SDS011;11624;53.250;7.456;2022-09-21T01:49:24;11.77;;;3.30;;
22916;SDS011;11624;53.250;7.456;2022-09-21T01:51:57;9.35;;;3.20;;
22916;SDS011;11624;53.250;7.456;2022-09-21T01:54:29;10.05;;;2.90;;
22916;SDS011;11624;53.250;7.456;2022-09-21T01:57:05;13.68;;;3.67;;
22916;SDS011;11624;53.250;7.456;2022-09-21T01:59:41;13.73;;;3.08;;
22916;SDS011;11624;53.250;7.456;2022-09-21T02:02:17;8.27;;;3.03;;
22916;SDS011;11624;53.250;7.456;2022-09-21T02:04:52;8.75;;;2.75;;
22916;SDS011;11624;53.250;7.456;2022-09-21T02:07:22;8.30;;;3.00;;
22916;SDS011;11624;53.250;7.456;2022-09-21T02:09:51;10.35;;;2.95;;
22916;SDS011;11624;53.250;7.456;2022-09-21T02:12:21;9.55;;;3.22;;
22916;SDS011;11624;53.250;7.456;2022-09-21T02:14:51;10.95;;;3.10;;
22916;SDS011;11624;53.250;7.456;2022-09-21T02:17:25;8.18;;;2.88;;
22916;SDS011;11624;53.250;7.456;2022-09-21T02:20:04;7.43;;;2.88;;
22916;SDS011;11624;53.250;7.456;2022-09-21T02:22:46;10.70;;;3.10;;
22916;SDS011;11624;53.250;7.456;2022-09-21T02:25:23;7.15;;;2.70;;
22916;SDS011;11624;53.250;7.456;2022-09-21T02:27:59;15.65;;;3.20;;
22916;SDS011;11624;53.250;7.456;2022-09-21T02:30:34;6.85;;;2.70;;
22916;SDS011;11624;53.250;7.456;2022-09-21T02:33:05;11.85;;;3.63;;
22916;SDS011;11624;53.250;7.456;2022-09-21T02:35:40;9.60;;;3.10;;
22916;SDS011;11624;53.250;7.456;2022-09-21T02:38:13;8.02;;;2.45;;
22916;SDS011;11624;53.250;7.456;2022-09-21T02:40:48;8.98;;;2.80;;
22916;SDS011;11624;53.250;7.456;2022-09-21T02:46:03;8.55;;;2.88;;
22916;SDS011;11624;53.250;7.456;2022-09-21T02:48:36;10.15;;;3.30;;
22916;SDS011;11624;53.250;7.456;2022-09-21T02:51:10;9.70;;;2.83;;
22916;SDS011;11624;53.250;7.456;2022-09-21T02:53:42;8.05;;;2.75;;
22916;SDS011;11624;53.250;7.456;2022-09-21T02:56:13;9.15;;;2.88;;
22916;SDS011;11624;53.250;7.456;2022-09-21T02:58:44;10.80;;;3.30;;
22916;SDS011;11624;53.250;7.456;2022-09-21T03:01:17;11.95;;;3.10;;
22916;SDS011;11624;53.250;7.456;2022-09-21T03:03:47;10.55;;;3.13;;
22916;SDS011;11624;53.250;7.456;2022-09-21T03:06:16;10.38;;;2.90;;
22916;SDS011;11624;53.250;7.456;2022-09-21T03:08:44;9.38;;;2.90;;
22916;SDS011;11624;53.250;7.456;2022-09-21T03:11:14;9.13;;;3.25;;
22916;SDS011;11624;53.250;7.456;2022-09-21T03:13:43;15.18;;;3.33;;
22916;SDS011;11624;53.250;7.456;2022-09-21T03:16:11;10.20;;;3.53;;
22916;SDS011;11624;53.250;7.456;2022-09-21T03:18:41;11.80;;;3.17;;
22916;SDS011;11624;53.250;7.456;2022-09-21T03:21:10;11.65;;;3.45;;
22916;SDS011;11624;53.250;7.456;2022-09-21T03:23:39;10.93;;;3.28;;
22916;SDS011;11624;53.250;7.456;2022-09-21T03:26:07;10.40;;;2.95;;
22916;SDS011;11624;53.250;7.456;2022-09-21T03:28:35;10.13;;;3.25;;
22916;SDS011;11624;53.250;7.456;2022-09-21T03:31:04;9.70;;;3.05;;
22916;SDS011;11624;53.250;7.456;2022-09-21T03:33:32;11.52;;;3.30;;
22916;SDS011;11624;53.250;7.456;2022-09-21T03:36:02;10.65;;;3.20;;
22916;SDS011;11624;53.250;7.456;2022-09-21T03:38:31;8.52;;;3.10;;
22916;SDS011;11624;53.250;7.456;2022-09-21T03:40:59;12.93;;;3.40;;
22916;SDS011;11624;53.250;7.456;2022-09-21T03:43:27;10.98;;;3.22;;
22916;SDS011;11624;53.250;7.456;2022-09-21T03:45:56;13.40;;;3.70;;
22916;SDS011;11624;53.250;7.456;2022-09-21T03:48:24;11.20;;;3.28;;
22916;SDS011;11624;53.250;7.456;2022-09-21T03:50:53;9.65;;;3.20;;
22916;SDS011;11624;53.250;7.456;2022-09-21T03:53:23;12.25;;;3.30;;
22916;SDS011;11624;53.250;7.456;2022-09-21T03:55:51;9.18;;;3.40;;
22916;SDS011;11624;53.250;7.456;2022-09-21T03:58:19;12.18;;;3.35;;
22916;SDS011;11624;53.250;7.456;2022-09-21T04:00:48;9.15;;;2.67;;
22916;SDS011;11624;53.250;7.456;2022-09-21T04:03:16;9.55;;;3.22;;
22916;SDS011;11624;53.250;7.456;2022-09-21T04:05:44;8.85;;;3.03;;
22916;SDS011;11624;53.250;7.456;2022-09-21T04:08:12;14.60;;;3.50;;
22916;SDS011;11624;53.250;7.456;2022-09-21T04:10:42;11.93;;;3.58;;
22916;SDS011;11624;53.250;7.456;2022-09-21T04:13:10;13.25;;;3.75;;
22916;SDS011;11624;53.250;7.456;2022-09-21T04:15:39;12.48;;;4.20;;
22916;SDS011;11624;53.250;7.456;2022-09-21T04:18:07;13.37;;;4.23;;
22916;SDS011;11624;53.250;7.456;2022-09-21T04:20:35;14.38;;;4.05;;
22916;SDS011;11624;53.250;7.456;2022-09-21T04:23:04;12.00;;;4.22;;
22916;SDS011;11624;53.250;7.456;2022-09-21T04:25:33;11.52;;;4.15;;
22916;SDS011;11624;53.250;7.456;2022-09-21T04:28:03;8.55;;;3.58;;
22916;SDS011;11624;53.250;7.456;2022-09-21T04:30:31;12.77;;;4.25;;
22916;SDS011;11624;53.250;7.456;2022-09-21T04:33:03;11.82;;;4.05;;
22916;SDS011;11624;53.250;7.456;2022-09-21T04:35:31;12.13;;;3.97;;
22916;SDS011;11624;53.250;7.456;2022-09-21T04:38:00;17.27;;;4.47;;
22916;SDS011;11624;53.250;7.456;2022-09-21T04:40:28;13.32;;;4.28;;
22916;SDS011;11624;53.250;7.456;2022-09-21T04:42:57;10.27;;;3.58;;
22916;SDS011;11624;53.250;7.456;2022-09-21T04:45:26;13.75;;;4.50;;
22916;SDS011;11624;53.250;7.456;2022-09-21T04:47:55;16.13;;;4.43;;
22916;SDS011;11624;53.250;7.456;2022-09-21T04:50:23;13.18;;;4.50;;
22916;SDS011;11624;53.250;7.456;2022-09-21T04:53:01;13.80;;;4.28;;
22916;SDS011;11624;53.250;7.456;2022-09-21T04:55:30;13.90;;;4.18;;
22916;SDS011;11624;53.250;7.456;2022-09-21T04:57:58;15.02;;;4.68;;
22916;SDS011;11624;53.250;7.456;2022-09-21T05:00:28;12.60;;;4.55;;
22916;SDS011;11624;53.250;7.456;2022-09-21T05:02:57;12.95;;;4.55;;
22916;SDS011;11624;53.250;7.456;2022-09-21T05:05:25;13.55;;;4.20;;
22916;SDS011;11624;53.250;7.456;2022-09-21T05:07:53;13.80;;;4.75;;
22916;SDS011;11624;53.250;7.456;2022-09-21T05:10:22;14.75;;;4.85;;
22916;SDS011;11624;53.250;7.456;2022-09-21T05:12:49;12.23;;;4.32;;
22916;SDS011;11624;53.250;7.456;2022-09-21T05:15:18;14.73;;;5.80;;
22916;SDS011;11624;53.250;7.456;2022-09-21T05:17:48;14.75;;;6.32;;
22916;SDS011;11624;53.250;7.456;2022-09-21T05:20:17;13.80;;;5.57;;
22916;SDS011;11624;53.250;7.456;2022-09-21T05:22:45;15.88;;;5.40;;
22916;SDS011;11624;53.250;7.456;2022-09-21T05:25:13;16.93;;;5.63;;
22916;SDS011;11624;53.250;7.456;2022-09-21T05:27:42;19.55;;;5.28;;
22916;SDS011;11624;53.250;7.456;2022-09-21T05:30:11;14.32;;;5.25;;
22916;SDS011;11624;53.250;7.456;2022-09-21T05:32:43;13.43;;;4.72;;
22916;SDS011;11624;53.250;7.456;2022-09-21T05:35:21;12.30;;;4.43;;
22916;SDS011;11624;53.250;7.456;2022-09-21T05:37:58;13.60;;;4.85;;
22916;SDS011;11624;53.250;7.456;2022-09-21T05:40:31;16.90;;;5.38;;
22916;SDS011;11624;53.250;7.456;2022-09-21T05:43:00;16.65;;;5.63;;
22916;SDS011;11624;53.250;7.456;2022-09-21T05:45:29;15.95;;;5.57;;
22916;SDS011;11624;53.250;7.456;2022-09-21T05:48:02;13.68;;;4.95;;
22916;SDS011;11624;53.250;7.456;2022-09-21T05:50:42;13.63;;;4.80;;
22916;SDS011;11624;53.250;7.456;2022-09-21T05:53:22;12.53;;;4.83;;
22916;SDS011;11624;53.250;7.456;2022-09-21T05:56:02;14.68;;;5.43;;
22916;SDS011;11624;53.250;7.456;2022-09-21T05:58:35;16.45;;;5.88;;
22916;SDS011;11624;53.250;7.456;2022-09-21T06:01:19;15.90;;;4.85;;
22916;SDS011;11624;53.250;7.456;2022-09-21T06:04:03;15.65;;;4.95;;
22916;SDS011;11624;53.250;7.456;2022-09-21T06:06:33;13.00;;;5.22;;
22916;SDS011;11624;53.250;7.456;2022-09-21T06:09:01;14.80;;;5.57;;
22916;SDS011;11624;53.250;7.456;2022-09-21T06:11:29;14.18;;;4.50;;
22916;SDS011;11624;53.250;7.456;2022-09-21T06:13:59;12.55;;;5.10;;
22916;SDS011;11624;53.250;7.456;2022-09-21T06:16:35;16.13;;;5.38;;
22916;SDS011;11624;53.250;7.456;2022-09-21T06:19:04;13.90;;;5.88;;
22916;SDS011;11624;53.250;7.456;2022-09-21T06:21:34;14.65;;;5.65;;
22916;SDS011;11624;53.250;7.456;2022-09-21T06:24:02;18.30;;;6.10;;
22916;SDS011;11624;53.250;7.456;2022-09-21T06:26:31;13.80;;;5.30;;
22916;SDS011;11624;53.250;7.456;2022-09-21T06:28:59;18.23;;;6.07;;
22916;SDS011;11624;53.250;7.456;2022-09-21T06:31:28;22.08;;;5.85;;
22916;SDS011;11624;53.250;7.456;2022-09-21T06:33:56;19.70;;;6.90;;
22916;SDS011;11624;53.250;7.456;2022-09-21T06:36:25;15.32;;;6.53;;
22916;SDS011;11624;53.250;7.456;2022-09-21T06:38:54;16.95;;;7.28;;
22916;SDS011;11624;53.250;7.456;2022-09-21T06:41:23;19.50;;;7.88;;
22916;SDS011;11624;53.250;7.456;2022-09-21T06:43:52;17.73;;;8.05;;
22916;SDS011;11624;53.250;7.456;2022-09-21T06:46:22;25.70;;;9.30;;
22916;SDS011;11624;53.250;7.456;2022-09-21T06:48:50;58.47;;;12.13;;
22916;SDS011;11624;53.250;7.456;2022-09-21T06:51:19;23.83;;;9.07;;
22916;SDS011;11624;53.250;7.456;2022-09-21T06:53:52;21.73;;;7.78;;
22916;SDS011;11624;53.250;7.456;2022-09-21T06:56:23;23.20;;;8.35;;
22916;SDS011;11624;53.250;7.456;2022-09-21T06:58:52;22.27;;;8.70;;
22916;SDS011;11624;53.250;7.456;2022-09-21T07:01:22;22.80;;;7.57;;
22916;SDS011;11624;53.250;7.456;2022-09-21T07:03:50;18.40;;;7.72;;
22916;SDS011;11624;53.250;7.456;2022-09-21T07:06:19;17.80;;;7.88;;
22916;SDS011;11624;53.250;7.456;2022-09-21T07:08:50;22.70;;;8.98;;
22916;SDS011;11624;53.250;7.456;2022-09-21T07:11:40;20.08;;;8.68;;
22916;SDS011;11624;53.250;7.456;2022-09-21T07:14:08;18.15;;;8.13;;
22916;SDS011;11624;53.250;7.456;2022-09-21T07:16:36;20.98;;;8.38;;
22916;SDS011;11624;53.250;7.456;2022-09-21T07:19:05;22.83;;;8.10;;
22916;SDS011;11624;53.250;7.456;2022-09-21T07:21:37;19.02;;;8.20;;
22916;SDS011;11624;53.250;7.456;2022-09-21T07:24:06;21.90;;;7.43;;
22916;SDS011;11624;53.250;7.456;2022-09-21T07:26:38;18.95;;;6.45;;
22916;SDS011;11624;53.250;7.456;2022-09-21T07:29:07;16.45;;;5.90;;
22916;SDS011;11624;53.250;7.456;2022-09-21T07:31:36;14.73;;;5.03;;
22916;SDS011;11624;53.250;7.456;2022-09-21T07:34:04;11.73;;;4.75;;
22916;SDS011;11624;53.250;7.456;2022-09-21T07:36:33;14.63;;;5.00;;
22916;SDS011;11624;53.250;7.456;2022-09-21T07:39:01;16.80;;;4.80;;
22916;SDS011;11624;53.250;7.456;2022-09-21T07:41:30;14.23;;;4.40;;
22916;SDS011;11624;53.250;7.456;2022-09-21T07:44:00;14.30;;;5.03;;
22916;SDS011;11624;53.250;7.456;2022-09-21T07:46:29;12.52;;;4.25;;
22916;SDS011;11624;53.250;7.456;2022-09-21T07:48:57;13.35;;;4.30;;
22916;SDS011;11624;53.250;7.456;2022-09-21T07:51:26;12.23;;;4.38;;
22916;SDS011;11624;53.250;7.456;2022-09-21T07:53:54;15.63;;;3.72;;
22916;SDS011;11624;53.250;7.456;2022-09-21T07:56:23;13.05;;;3.92;;
22916;SDS011;11624;53.250;7.456;2022-09-21T07:58:52;11.23;;;3.70;;
22916;SDS011;11624;53.250;7.456;2022-09-21T08:01:36;10.23;;;3.42;;
22916;SDS011;11624;53.250;7.456;2022-09-21T08:04:05;13.25;;;3.33;;
22916;SDS011;11624;53.250;7.456;2022-09-21T08:06:36;10.55;;;3.22;;
22916;SDS011;11624;53.250;7.456;2022-09-21T08:09:06;11.13;;;2.63;;
22916;SDS011;11624;53.250;7.456;2022-09-21T08:11:34;10.85;;;2.70;;
22916;SDS011;11624;53.250;7.456;2022-09-21T08:14:04;14.07;;;2.60;;
22916;SDS011;11624;53.250;7.456;2022-09-21T08:16:33;12.05;;;2.58;;
22916;SDS011;11624;53.250;7.456;2022-09-21T08:19:02;11.65;;;2.78;;
22916;SDS011;11624;53.250;7.456;2022-09-21T08:21:31;10.98;;;2.55;;
22916;SDS011;11624;53.250;7.456;2022-09-21T08:24:00;13.23;;;2.67;;
22916;SDS011;11624;53.250;7.456;2022-09-21T08:26:28;9.75;;;2.33;;
22916;SDS011;11624;53.250;7.456;2022-09-21T08:28:56;15.23;;;3.17;;
22916;SDS011;11624;53.250;7.456;2022-09-21T08:31:25;10.98;;;2.28;;
22916;SDS011;11624;53.250;7.456;2022-09-21T08:33:53;8.32;;;2.13;;
22916;SDS011;11624;53.250;7.456;2022-09-21T08:36:24;12.55;;;2.28;;
22916;SDS011;11624;53.250;7.456;2022-09-21T08:38:52;10.90;;;2.42;;
22916;SDS011;11624;53.250;7.456;2022-09-21T08:41:23;7.68;;;1.98;;
22916;SDS011;11624;53.250;7.456;2022-09-21T08:44:02;14.60;;;2.08;;
22916;SDS011;11624;53.250;7.456;2022-09-21T08:46:37;6.93;;;1.40;;
22916;SDS011;11624;53.250;7.456;2022-09-21T08:49:07;11.88;;;1.98;;
22916;SDS011;11624;53.250;7.456;2022-09-21T08:51:46;10.10;;;1.83;;
22916;SDS011;11624;53.250;7.456;2022-09-21T08:54:26;12.80;;;1.88;;
22916;SDS011;11624;53.250;7.456;2022-09-21T08:57:01;7.80;;;1.40;;
22916;SDS011;11624;53.250;7.456;2022-09-21T08:59:34;14.98;;;1.95;;
22916;SDS011;11624;53.250;7.456;2022-09-21T09:02:20;12.48;;;1.92;;
22916;SDS011;11624;53.250;7.456;2022-09-21T09:05:14;11.27;;;1.40;;
22916;SDS011;11624;53.250;7.456;2022-09-21T09:08:07;10.93;;;1.70;;
22916;SDS011;11624;53.250;7.456;2022-09-21T09:11:01;9.35;;;1.63;;
22916;SDS011;11624;53.250;7.456;2022-09-21T09:13:44;10.68;;;1.52;;
22916;SDS011;11624;53.250;7.456;2022-09-21T09:16:35;9.73;;;1.60;;
22916;SDS011;11624;53.250;7.456;2022-09-21T09:19:17;8.15;;;1.63;;
22916;SDS011;11624;53.250;7.456;2022-09-21T09:21:59;9.20;;;1.20;;
22916;SDS011;11624;53.250;7.456;2022-09-21T09:24:35;8.27;;;1.48;;
22916;SDS011;11624;53.250;7.456;2022-09-21T09:27:12;9.10;;;1.52;;
22916;SDS011;11624;53.250;7.456;2022-09-21T09:29:48;9.40;;;1.20;;
22916;SDS011;11624;53.250;7.456;2022-09-21T09:32:33;7.80;;;1.30;;
22916;SDS011;11624;53.250;7.456;2022-09-21T09:35:12;11.10;;;1.40;;
22916;SDS011;11624;53.250;7.456;2022-09-21T09:37:57;6.38;;;1.23;;
22916;SDS011;11624;53.250;7.456;2022-09-21T09:40:46;7.95;;;1.40;;
22916;SDS011;11624;53.250;7.456;2022-09-21T09:43:31;10.02;;;1.38;;
22916;SDS011;11624;53.250;7.456;2022-09-21T09:46:16;9.38;;;1.50;;
22916;SDS011;11624;53.250;7.456;2022-09-21T09:49:07;8.27;;;1.20;;
22916;SDS011;11624;53.250;7.456;2022-09-21T09:51:56;11.35;;;1.27;;
22916;SDS011;11624;53.250;7.456;2022-09-21T09:54:37;8.43;;;1.20;;
22916;SDS011;11624;53.250;7.456;2022-09-21T09:57:11;8.55;;;1.30;;
22916;SDS011;11624;53.250;7.456;2022-09-21T09:59:45;9.88;;;1.40;;
22916;SDS011;11624;53.250;7.456;2022-09-21T10:02:24;11.48;;;1.48;;
22916;SDS011;11624;53.250;7.456;2022-09-21T10:04:57;11.70;;;1.98;;
22916;SDS011;11624;53.250;7.456;2022-09-21T10:07:32;9.55;;;1.40;;
22916;SDS011;11624;53.250;7.456;2022-09-21T10:10:11;8.88;;;1.35;;
22916;SDS011;11624;53.250;7.456;2022-09-21T10:13:07;8.27;;;1.80;;
22916;SDS011;11624;53.250;7.456;2022-09-21T10:15:44;8.30;;;1.50;;
22916;SDS011;11624;53.250;7.456;2022-09-21T10:18:17;6.80;;;1.35;;
22916;SDS011;11624;53.250;7.456;2022-09-21T10:20:59;4.93;;;1.13;;
22916;SDS011;11624;53.250;7.456;2022-09-21T10:23:29;8.15;;;1.60;;
22916;SDS011;11624;53.250;7.456;2022-09-21T10:26:05;11.93;;;1.45;;
22916;SDS011;11624;53.250;7.456;2022-09-21T10:28:38;12.85;;;1.52;;
22916;SDS011;11624;53.250;7.456;2022-09-21T10:31:22;7.60;;;1.35;;
22916;SDS011;11624;53.250;7.456;2022-09-21T10:34:04;8.80;;;1.20;;
22916;SDS011;11624;53.250;7.456;2022-09-21T10:36:38;8.10;;;1.30;;
22916;SDS011;11624;53.250;7.456;2022-09-21T10:41:58;5.80;;;1.15;;
22916;SDS011;11624;53.250;7.456;2022-09-21T10:44:35;9.32;;;1.45;;
22916;SDS011;11624;53.250;7.456;2022-09-21T10:50:04;4.63;;;1.15;;
22916;SDS011;11624;53.250;7.456;2022-09-21T10:52:35;5.90;;;1.38;;
22916;SDS011;11624;53.250;7.456;2022-09-21T10:55:06;9.02;;;1.38;;
22916;SDS011;11624;53.250;7.456;2022-09-21T10:57:44;8.63;;;1.30;;
22916;SDS011;11624;53.250;7.456;2022-09-21T11:00:27;10.02;;;1.50;;
22916;SDS011;11624;53.250;7.456;2022-09-21T11:06:14;6.20;;;1.38;;
22916;SDS011;11624;53.250;7.456;2022-09-21T11:08:49;6.30;;;1.20;;
22916;SDS011;11624;53.250;7.456;2022-09-21T11:11:39;8.93;;;1.58;;
22916;SDS011;11624;53.250;7.456;2022-09-21T11:14:17;8.13;;;1.25;;
22916;SDS011;11624;53.250;7.456;2022-09-21T11:17:06;10.30;;;1.38;;
22916;SDS011;11624;53.250;7.456;2022-09-21T11:19:40;11.95;;;1.50;;
22916;SDS011;11624;53.250;7.456;2022-09-21T11:22:11;5.63;;;1.30;;
22916;SDS011;11624;53.250;7.456;2022-09-21T11:24:47;9.30;;;1.50;;
22916;SDS011;11624;53.250;7.456;2022-09-21T11:27:23;7.90;;;1.35;;
22916;SDS011;11624;53.250;7.456;2022-09-21T11:29:59;6.40;;;1.23;;
22916;SDS011;11624;53.250;7.456;2022-09-21T11:32:34;9.32;;;1.23;;
22916;SDS011;11624;53.250;7.456;2022-09-21T11:35:18;5.63;;;1.42;;
22916;SDS011;11624;53.250;7.456;2022-09-21T11:38:03;10.48;;;1.40;;
22916;SDS011;11624;53.250;7.456;2022-09-21T11:40:55;7.85;;;1.17;;
22916;SDS011;11624;53.250;7.456;2022-09-21T11:43:58;3.97;;;1.02;;
22916;SDS011;11624;53.250;7.456;2022-09-21T11:46:45;8.10;;;1.20;;
22916;SDS011;11624;53.250;7.456;2022-09-21T11:49:46;10.50;;;1.40;;
22916;SDS011;11624;53.250;7.456;2022-09-21T11:53:00;8.95;;;1.38;;
22916;SDS011;11624;53.250;7.456;2022-09-21T11:55:55;7.38;;;1.30;;
22916;SDS011;11624;53.250;7.456;2022-09-21T11:58:53;7.50;;;1.30;;
22916;SDS011;11624;53.250;7.456;2022-09-21T12:01:48;8.93;;;1.42;;
22916;SDS011;11624;53.250;7.456;2022-09-21T12:04:38;9.02;;;1.45;;
22916;SDS011;11624;53.250;7.456;2022-09-21T12:07:18;7.72;;;1.35;;
22916;SDS011;11624;53.250;7.456;2022-09-21T12:09:56;6.22;;;1.20;;
22916;SDS011;11624;53.250;7.456;2022-09-21T12:12:37;9.38;;;1.30;;
22916;SDS011;11624;53.250;7.456;2022-09-21T12:15:12;9.00;;;1.45;;
22916;SDS011;11624;53.250;7.456;2022-09-21T12:17:56;12.50;;;1.60;;
22916;SDS011;11624;53.250;7.456;2022-09-21T12:20:38;8.60;;;1.25;;
22916;SDS011;11624;53.250;7.456;2022-09-21T12:23:22;11.90;;;1.52;;
22916;SDS011;11624;53.250;7.456;2022-09-21T12:26:00;9.55;;;1.42;;
22916;SDS011;11624;53.250;7.456;2022-09-21T12:28:38;13.68;;;1.88;;
22916;SDS011;11624;53.250;7.456;2022-09-21T12:31:14;5.55;;;1.23;;
22916;SDS011;11624;53.250;7.456;2022-09-21T12:33:49;7.60;;;1.70;;
22916;SDS011;11624;53.250;7.456;2022-09-21T12:36:24;8.30;;;1.50;;
22916;SDS011;11624;53.250;7.456;2022-09-21T12:42:32;8.00;;;1.60;;
22916;SDS011;11624;53.250;7.456;2022-09-21T12:45:06;7.72;;;1.25;;
22916;SDS011;11624;53.250;7.456;2022-09-21T12:47:46;9.15;;;1.55;;
22916;SDS011;11624;53.250;7.456;2022-09-21T12:50:21;11.18;;;1.48;;
22916;SDS011;11624;53.250;7.456;2022-09-21T12:53:10;11.00;;;1.58;;
22916;SDS011;11624;53.250;7.456;2022-09-21T12:55:48;8.13;;;1.98;;
22916;SDS011;11624;53.250;7.456;2022-09-21T12:58:26;7.20;;;1.20;;
22916;SDS011;11624;53.250;7.456;2022-09-21T13:01:15;8.82;;;1.60;;
22916;SDS011;11624;53.250;7.456;2022-09-21T13:04:09;7.70;;;1.52;;
22916;SDS011;11624;53.250;7.456;2022-09-21T13:07:11;9.50;;;1.70;;
22916;SDS011;11624;53.250;7.456;2022-09-21T13:09:59;5.22;;;1.27;;
22916;SDS011;11624;53.250;7.456;2022-09-21T13:12:37;7.63;;;1.50;;
22916;SDS011;11624;53.250;7.456;2022-09-21T13:15:16;5.30;;;1.30;;
22916;SDS011;11624;53.250;7.456;2022-09-21T13:17:57;7.05;;;1.35;;
22916;SDS011;11624;53.250;7.456;2022-09-21T13:20:32;3.33;;;0.93;;
22916;SDS011;11624;53.250;7.456;2022-09-21T13:23:12;7.53;;;1.30;;
22916;SDS011;11624;53.250;7.456;2022-09-21T13:25:46;6.93;;;1.17;;
22916;SDS011;11624;53.250;7.456;2022-09-21T13:28:18;7.53;;;1.30;;
22916;SDS011;11624;53.250;7.456;2022-09-21T13:34:23;7.95;;;1.25;;
22916;SDS011;11624;53.250;7.456;2022-09-21T13:37:24;12.75;;;1.60;;
22916;SDS011;11624;53.250;7.456;2022-09-21T13:43:17;10.05;;;1.45;;
22916;SDS011;11624;53.250;7.456;2022-09-21T13:45:53;5.00;;;1.27;;
22916;SDS011;11624;53.250;7.456;2022-09-21T13:48:37;7.75;;;1.30;;
22916;SDS011;11624;53.250;7.456;2022-09-21T13:51:09;7.60;;;1.20;;
22916;SDS011;11624;53.250;7.456;2022-09-21T13:53:43;5.95;;;1.35;;
22916;SDS011;11624;53.250;7.456;2022-09-21T13:56:17;8.13;;;1.40;;
22916;SDS011;11624;53.250;7.456;2022-09-21T13:58:50;5.28;;;1.25;;
22916;SDS011;11624;53.250;7.456;2022-09-21T14:01:29;9.98;;;1.40;;
22916;SDS011;11624;53.250;7.456;2022-09-21T14:04:16;5.80;;;1.15;;
22916;SDS011;11624;53.250;7.456;2022-09-21T14:06:52;5.13;;;1.10;;
22916;SDS011;11624;53.250;7.456;2022-09-21T14:09:25;5.32;;;1.15;;
22916;SDS011;11624;53.250;7.456;2022-09-21T14:11:58;8.27;;;1.40;;
22916;SDS011;11624;53.250;7.456;2022-09-21T14:14:32;6.35;;;1.20;;
22916;SDS011;11624;53.250;7.456;2022-09-21T14:17:14;6.72;;;1.13;;
22916;SDS011;11624;53.250;7.456;2022-09-21T14:20:05;8.20;;;1.48;;
22916;SDS011;11624;53.250;7.456;2022-09-21T14:23:24;6.53;;;0.98;;
22916;SDS011;11624;53.250;7.456;2022-09-21T14:25:54;7.88;;;1.20;;
22916;SDS011;11624;53.250;7.456;2022-09-21T14:28:31;7.28;;;0.90;;
22916;SDS011;11624;53.250;7.456;2022-09-21T14:31:07;5.80;;;1.17;;
22916;SDS011;11624;53.250;7.456;2022-09-21T14:33:46;8.30;;;1.30;;
22916;SDS011;11624;53.250;7.456;2022-09-21T14:36:19;3.22;;;0.88;;
22916;SDS011;11624;53.250;7.456;2022-09-21T14:39:05;7.68;;;0.95;;
22916;SDS011;11624;53.250;7.456;2022-09-21T14:41:43;6.05;;;1.10;;
22916;SDS011;11624;53.250;7.456;2022-09-21T14:44:19;3.55;;;0.90;;
22916;SDS011;11624;53.250;7.456;2022-09-21T14:52:46;8.80;;;1.30;;
22916;SDS011;11624;53.250;7.456;2022-09-21T14:55:31;4.57;;;0.98;;
22916;SDS011;11624;53.250;7.456;2022-09-21T14:58:18;5.63;;;1.08;;
22916;SDS011;11624;53.250;7.456;2022-09-21T15:00:56;7.13;;;1.17;;
22916;SDS011;11624;53.250;7.456;2022-09-21T15:03:55;5.78;;;0.93;;
22916;SDS011;11624;53.250;7.456;2022-09-21T15:06:35;5.47;;;1.00;;
22916;SDS011;11624;53.250;7.456;2022-09-21T15:09:33;4.32;;;1.20;;
22916;SDS011;11624;53.250;7.456;2022-09-21T15:12:37;4.78;;;1.05;;
22916;SDS011;11624;53.250;7.456;2022-09-21T15:15:20;6.72;;;1.10;;
22916;SDS011;11624;53.250;7.456;2022-09-21T15:17:56;7.97;;;1.13;;
22916;SDS011;11624;53.250;7.456;2022-09-21T15:20:28;8.55;;;1.85;;
22916;SDS011;11624;53.250;7.456;2022-09-21T15:22:57;6.60;;;1.10;;
22916;SDS011;11624;53.250;7.456;2022-09-21T15:25:27;3.75;;;1.00;;
22916;SDS011;11624;53.250;7.456;2022-09-21T15:28:01;9.88;;;1.27;;
22916;SDS011;11624;53.250;7.456;2022-09-21T15:30:30;6.07;;;1.00;;
22916;SDS011;11624;53.250;7.456;2022-09-21T15:33:00;7.45;;;1.42;;
22916;SDS011;11624;53.250;7.456;2022-09-21T15:35:29;7.10;;;1.33;;
22916;SDS011;11624;53.250;7.456;2022-09-21T15:37:59;8.38;;;1.05;;
22916;SDS011;11624;53.250;7.456;2022-09-21T15:40:29;7.22;;;1.33;;
22916;SDS011;11624;53.250;7.456;2022-09-21T15:43:00;5.75;;;1.00;;
22916;SDS011;11624;53.250;7.456;2022-09-21T15:45:32;8.75;;;1.30;;
22916;SDS011;11624;53.250;7.456;2022-09-21T15:48:20;6.38;;;1.00;;
22916;SDS011;11624;53.250;7.456;2022-09-21T15:50:49;4.32;;;1.25;;
22916;SDS011;11624;53.250;7.456;2022-09-21T15:53:24;8.93;;;1.35;;
22916;SDS011;11624;53.250;7.456;2022-09-21T15:55:56;6.78;;;1.15;;
22916;SDS011;11624;53.250;7.456;2022-09-21T15:58:31;5.45;;;1.02;;
22916;SDS011;11624;53.250;7.456;2022-09-21T16:01:03;10.32;;;1.50;;